sensor_id;sensor_type;location;lat;lon;timestamp;pressure;altitude;pressure_sealevel;temperature;humidity
70009;BME280;59542;37.950;-122.338;2022-08-05T00:02:04;101043.19;;;24.16;50.40
70009;BME280;59542;37.950;-122.338;2022-08-05T00:04:30;101046.56;;;24.08;51.56
70009;BME280;59542;37.950;-122.338;2022-08-05T00:06:56;101038.59;;;24.12;50.58
70009;BME280;59542;37.950;-122.338;2022-08-05T00:09:22;101033.09;;;23.64;50.99
70009;BME280;59542;37.950;-122.338;2022-08-05T00:11:49;101034.97;;;23.68;51.78
70009;BME280;59542;37.950;-122.338;2022-08-05T00:14:15;101038.25;;;23.36;51.90
70009;BME280;59542;37.950;-122.338;2022-08-05T00:16:41;101033.09;;;23.35;53.73
70009;BME280;59542;37.950;-122.338;2022-08-05T00:19:08;101026.28;;;23.32;53.40
70009;BME280;59542;37.950;-122.338;2022-08-05T00:21:34;101027.13;;;23.57;53.39
70009;BME280;59542;37.950;-122.338;2022-08-05T00:24:00;101019.91;;;23.42;52.76
70009;BME280;59542;37.950;-122.338;2022-08-05T00:26:27;101016.19;;;22.99;52.78
70009;BME280;59542;37.950;-122.338;2022-08-05T00:28:53;101022.91;;;22.67;54.00
70009;BME280;59542;37.950;-122.338;2022-08-05T00:31:19;101020.78;;;22.54;54.39
70009;BME280;59542;37.950;-122.338;2022-08-05T00:33:45;101022.47;;;22.50;55.02
70009;BME280;59542;37.950;-122.338;2022-08-05T00:36:11;101003.31;;;22.60;55.03
70009;BME280;59542;37.950;-122.338;2022-08-05T00:38:39;101013.97;;;22.56;54.74
70009;BME280;59542;37.950;-122.338;2022-08-05T00:41:05;101020.31;;;22.47;55.29
70009;BME280;59542;37.950;-122.338;2022-08-05T00:43:34;101013.63;;;22.19;55.47
70009;BME280;59542;37.950;-122.338;2022-08-05T00:46:01;101023.25;;;21.85;56.71
70009;BME280;59542;37.950;-122.338;2022-08-05T00:48:28;101026.50;;;21.87;56.91
70009;BME280;59542;37.950;-122.338;2022-08-05T00:50:54;101019.22;;;21.63;57.24
70009;BME280;59542;37.950;-122.338;2022-08-05T00:53:22;101018.91;;;21.74;56.98
70009;BME280;59542;37.950;-122.338;2022-08-05T00:55:49;101009.13;;;21.63;58.02
70009;BME280;59542;37.950;-122.338;2022-08-05T00:58:16;101014.31;;;21.59;57.47
70009;BME280;59542;37.950;-122.338;2022-08-05T01:00:43;101025.72;;;21.77;57.57
70009;BME280;59542;37.950;-122.338;2022-08-05T01:03:11;101020.28;;;21.72;57.07
70009;BME280;59542;37.950;-122.338;2022-08-05T01:05:37;101030.06;;;21.88;57.98
70009;BME280;59542;37.950;-122.338;2022-08-05T01:08:04;101024.88;;;21.76;57.69
70009;BME280;59542;37.950;-122.338;2022-08-05T01:10:40;101019.09;;;22.03;57.32
70009;BME280;59542;37.950;-122.338;2022-08-05T01:13:30;101016.91;;;22.16;56.91
70009;BME280;59542;37.950;-122.338;2022-08-05T01:16:01;101028.16;;;21.88;57.77
70009;BME280;59542;37.950;-122.338;2022-08-05T01:18:41;101029.81;;;21.74;57.91
70009;BME280;59542;37.950;-122.338;2022-08-05T01:21:43;101041.00;;;21.57;58.33
70009;BME280;59542;37.950;-122.338;2022-08-05T01:24:32;101043.50;;;21.39;59.14
70009;BME280;59542;37.950;-122.338;2022-08-05T01:27:19;101041.25;;;21.20;59.63
70009;BME280;59542;37.950;-122.338;2022-08-05T01:29:55;101041.25;;;21.25;59.76
70009;BME280;59542;37.950;-122.338;2022-08-05T01:32:26;101047.53;;;21.11;60.61
70009;BME280;59542;37.950;-122.338;2022-08-05T01:35:14;101046.72;;;21.05;60.71
70009;BME280;59542;37.950;-122.338;2022-08-05T01:37:55;101046.44;;;21.01;60.34
70009;BME280;59542;37.950;-122.338;2022-08-05T01:40:26;101040.44;;;20.94;60.66
70009;BME280;59542;37.950;-122.338;2022-08-05T01:42:56;101032.28;;;21.04;60.69
70009;BME280;59542;37.950;-122.338;2022-08-05T01:45:23;101022.19;;;21.15;60.06
70009;BME280;59542;37.950;-122.338;2022-08-05T01:47:53;101014.88;;;21.11;60.32
70009;BME280;59542;37.950;-122.338;2022-08-05T01:50:25;101023.84;;;20.96;60.17
70009;BME280;59542;37.950;-122.338;2022-08-05T01:52:53;101023.03;;;21.00;60.18
70009;BME280;59542;37.950;-122.338;2022-08-05T01:55:22;101025.22;;;20.93;60.86
70009;BME280;59542;37.950;-122.338;2022-08-05T01:57:51;101036.66;;;21.05;59.75
70009;BME280;59542;37.950;-122.338;2022-08-05T02:00:18;101034.44;;;20.97;60.61
70009;BME280;59542;37.950;-122.338;2022-08-05T02:02:52;101045.31;;;20.72;60.91
70009;BME280;59542;37.950;-122.338;2022-08-05T02:05:22;101047.19;;;20.61;61.51
70009;BME280;59542;37.950;-122.338;2022-08-05T02:07:50;101046.38;;;20.61;61.79
70009;BME280;59542;37.950;-122.338;2022-08-05T02:10:16;101044.44;;;20.56;61.72
70009;BME280;59542;37.950;-122.338;2022-08-05T02:12:50;101040.34;;;20.59;61.55
70009;BME280;59542;37.950;-122.338;2022-08-05T02:15:26;101042.84;;;20.80;60.55
70009;BME280;59542;37.950;-122.338;2022-08-05T02:17:57;101039.28;;;20.70;60.88
70009;BME280;59542;37.950;-122.338;2022-08-05T02:20:26;101040.69;;;20.72;60.52
70009;BME280;59542;37.950;-122.338;2022-08-05T02:23:00;101047.69;;;20.58;61.23
70009;BME280;59542;37.950;-122.338;2022-08-05T02:25:33;101046.09;;;20.62;61.50
70009;BME280;59542;37.950;-122.338;2022-08-05T02:28:02;101050.94;;;20.50;61.36
70009;BME280;59542;37.950;-122.338;2022-08-05T02:30:34;101051.19;;;20.43;61.27
70009;BME280;59542;37.950;-122.338;2022-08-05T02:33:04;101051.81;;;20.66;60.94
70009;BME280;59542;37.950;-122.338;2022-08-05T02:35:33;101053.47;;;20.72;60.44
70009;BME280;59542;37.950;-122.338;2022-08-05T02:38:01;101052.09;;;20.74;60.14
70009;BME280;59542;37.950;-122.338;2022-08-05T02:40:28;101052.84;;;20.49;61.05
70009;BME280;59542;37.950;-122.338;2022-08-05T02:42:54;101059.72;;;20.15;61.94
70009;BME280;59542;37.950;-122.338;2022-08-05T02:45:24;101047.03;;;19.78;63.50
70009;BME280;59542;37.950;-122.338;2022-08-05T02:47:53;101046.50;;;19.81;63.65
70009;BME280;59542;37.950;-122.338;2022-08-05T02:50:21;101043.91;;;19.59;63.97
70009;BME280;59542;37.950;-122.338;2022-08-05T02:52:48;101042.72;;;19.45;64.80
70009;BME280;59542;37.950;-122.338;2022-08-05T02:55:16;101055.69;;;19.38;64.75
70009;BME280;59542;37.950;-122.338;2022-08-05T02:57:43;101058.03;;;19.29;64.96
70009;BME280;59542;37.950;-122.338;2022-08-05T03:00:11;101055.25;;;19.19;64.99
70009;BME280;59542;37.950;-122.338;2022-08-05T03:02:39;101050.84;;;19.13;65.51
70009;BME280;59542;37.950;-122.338;2022-08-05T03:05:09;101050.75;;;19.03;66.23
70009;BME280;59542;37.950;-122.338;2022-08-05T03:07:38;101049.72;;;18.82;66.87
70009;BME280;59542;37.950;-122.338;2022-08-05T03:10:04;101046.47;;;18.80;66.60
70009;BME280;59542;37.950;-122.338;2022-08-05T03:12:38;101064.84;;;18.72;67.24
70009;BME280;59542;37.950;-122.338;2022-08-05T03:15:07;101058.59;;;18.72;67.57
70009;BME280;59542;37.950;-122.338;2022-08-05T03:17:34;101056.50;;;18.57;67.58
70009;BME280;59542;37.950;-122.338;2022-08-05T03:20:00;101058.94;;;18.59;68.06
70009;BME280;59542;37.950;-122.338;2022-08-05T03:22:26;101056.94;;;18.49;68.13
70009;BME280;59542;37.950;-122.338;2022-08-05T03:24:53;101055.56;;;18.68;67.78
70009;BME280;59542;37.950;-122.338;2022-08-05T03:27:21;101052.34;;;18.71;67.60
70009;BME280;59542;37.950;-122.338;2022-08-05T03:29:47;101051.81;;;18.53;68.23
70009;BME280;59542;37.950;-122.338;2022-08-05T03:32:14;101053.22;;;18.55;67.96
70009;BME280;59542;37.950;-122.338;2022-08-05T03:34:42;101053.31;;;18.38;68.34
70009;BME280;59542;37.950;-122.338;2022-08-05T03:37:09;101062.75;;;18.36;68.73
70009;BME280;59542;37.950;-122.338;2022-08-05T03:39:36;101059.97;;;18.31;68.43
70009;BME280;59542;37.950;-122.338;2022-08-05T03:42:03;101053.09;;;18.23;68.50
70009;BME280;59542;37.950;-122.338;2022-08-05T03:44:29;101057.56;;;18.12;69.20
70009;BME280;59542;37.950;-122.338;2022-08-05T03:46:56;101064.94;;;18.17;69.20
70009;BME280;59542;37.950;-122.338;2022-08-05T03:49:22;101068.59;;;18.06;69.01
70009;BME280;59542;37.950;-122.338;2022-08-05T03:52:00;101070.22;;;18.07;69.68
70009;BME280;59542;37.950;-122.338;2022-08-05T03:54:39;101072.72;;;17.91;70.56
70009;BME280;59542;37.950;-122.338;2022-08-05T03:57:10;101073.78;;;17.90;70.61
70009;BME280;59542;37.950;-122.338;2022-08-05T03:59:44;101082.38;;;17.71;71.16
70009;BME280;59542;37.950;-122.338;2022-08-05T04:02:11;101082.88;;;17.67;71.35
70009;BME280;59542;37.950;-122.338;2022-08-05T04:04:40;101086.06;;;17.64;71.11
70009;BME280;59542;37.950;-122.338;2022-08-05T04:07:08;101088.88;;;17.69;70.75
70009;BME280;59542;37.950;-122.338;2022-08-05T04:09:36;101094.28;;;17.69;71.16
70009;BME280;59542;37.950;-122.338;2022-08-05T04:12:02;101097.81;;;17.70;71.17
70009;BME280;59542;37.950;-122.338;2022-08-05T04:14:30;101105.22;;;17.75;70.94
70009;BME280;59542;37.950;-122.338;2022-08-05T04:16:58;101108.19;;;17.73;70.78
70009;BME280;59542;37.950;-122.338;2022-08-05T04:19:26;101109.97;;;17.67;70.61
70009;BME280;59542;37.950;-122.338;2022-08-05T04:21:52;101105.28;;;17.63;71.02
70009;BME280;59542;37.950;-122.338;2022-08-05T04:24:18;101105.53;;;17.61;70.93
70009;BME280;59542;37.950;-122.338;2022-08-05T04:26:44;101110.53;;;17.69;70.46
70009;BME280;59542;37.950;-122.338;2022-08-05T04:29:11;101109.97;;;17.67;70.70
70009;BME280;59542;37.950;-122.338;2022-08-05T04:31:37;101106.66;;;17.65;70.86
70009;BME280;59542;37.950;-122.338;2022-08-05T04:34:03;101107.63;;;17.42;71.85
70009;BME280;59542;37.950;-122.338;2022-08-05T04:36:29;101112.41;;;17.35;71.67
70009;BME280;59542;37.950;-122.338;2022-08-05T04:38:55;101114.38;;;17.40;71.77
70009;BME280;59542;37.950;-122.338;2022-08-05T04:41:22;101107.16;;;17.29;72.25
70009;BME280;59542;37.950;-122.338;2022-08-05T04:43:48;101106.66;;;17.32;72.05
70009;BME280;59542;37.950;-122.338;2022-08-05T04:46:14;101108.31;;;17.33;72.01
70009;BME280;59542;37.950;-122.338;2022-08-05T04:48:40;101110.84;;;17.23;72.63
70009;BME280;59542;37.950;-122.338;2022-08-05T04:51:06;101108.53;;;17.31;72.30
70009;BME280;59542;37.950;-122.338;2022-08-05T04:53:34;101112.81;;;17.27;72.77
70009;BME280;59542;37.950;-122.338;2022-08-05T04:56:01;101098.13;;;17.23;72.92
70009;BME280;59542;37.950;-122.338;2022-08-05T04:58:27;101118.94;;;17.23;72.83
70009;BME280;59542;37.950;-122.338;2022-08-05T05:00:53;101115.22;;;17.12;73.26
70009;BME280;59542;37.950;-122.338;2022-08-05T05:03:19;101123.44;;;17.17;73.09
70009;BME280;59542;37.950;-122.338;2022-08-05T05:05:45;101129.06;;;17.15;73.07
70009;BME280;59542;37.950;-122.338;2022-08-05T05:08:12;101131.16;;;17.25;73.00
70009;BME280;59542;37.950;-122.338;2022-08-05T05:10:43;101123.66;;;17.15;73.72
70009;BME280;59542;37.950;-122.338;2022-08-05T05:13:12;101128.94;;;17.22;72.92
70009;BME280;59542;37.950;-122.338;2022-08-05T05:15:39;101128.13;;;17.22;72.95
70009;BME280;59542;37.950;-122.338;2022-08-05T05:18:06;101128.78;;;17.29;72.65
70009;BME280;59542;37.950;-122.338;2022-08-05T05:20:34;101134.69;;;17.26;72.86
70009;BME280;59542;37.950;-122.338;2022-08-05T05:23:01;101129.94;;;17.33;72.54
70009;BME280;59542;37.950;-122.338;2022-08-05T05:25:31;101136.16;;;17.17;73.27
70009;BME280;59542;37.950;-122.338;2022-08-05T05:27:57;101134.72;;;17.14;72.92
70009;BME280;59542;37.950;-122.338;2022-08-05T05:30:24;101137.28;;;17.21;72.93
70009;BME280;59542;37.950;-122.338;2022-08-05T05:32:50;101130.16;;;17.14;73.23
70009;BME280;59542;37.950;-122.338;2022-08-05T05:35:16;101135.34;;;17.16;73.34
70009;BME280;59542;37.950;-122.338;2022-08-05T05:37:50;101135.72;;;17.08;73.57
70009;BME280;59542;37.950;-122.338;2022-08-05T05:40:18;101137.44;;;17.14;73.19
70009;BME280;59542;37.950;-122.338;2022-08-05T05:42:45;101130.25;;;17.20;72.95
70009;BME280;59542;37.950;-122.338;2022-08-05T05:45:12;101142.31;;;17.29;72.22
70009;BME280;59542;37.950;-122.338;2022-08-05T05:47:38;101131.84;;;17.32;71.64
70009;BME280;59542;37.950;-122.338;2022-08-05T05:50:09;101128.69;;;17.24;71.99
70009;BME280;59542;37.950;-122.338;2022-08-05T05:52:37;101127.81;;;17.35;71.33
70009;BME280;59542;37.950;-122.338;2022-08-05T05:55:07;101134.28;;;17.34;71.71
70009;BME280;59542;37.950;-122.338;2022-08-05T05:57:34;101134.59;;;17.21;71.92
70009;BME280;59542;37.950;-122.338;2022-08-05T06:00:02;101134.19;;;17.29;72.10
70009;BME280;59542;37.950;-122.338;2022-08-05T06:02:28;101130.44;;;17.30;71.82
70009;BME280;59542;37.950;-122.338;2022-08-05T06:04:54;101132.94;;;17.20;71.94
70009;BME280;59542;37.950;-122.338;2022-08-05T06:07:20;101131.31;;;17.19;72.12
70009;BME280;59542;37.950;-122.338;2022-08-05T06:09:46;101131.00;;;17.32;72.06
70009;BME280;59542;37.950;-122.338;2022-08-05T06:12:13;101135.03;;;17.29;72.00
70009;BME280;59542;37.950;-122.338;2022-08-05T06:14:39;101140.88;;;17.09;72.84
70009;BME280;59542;37.950;-122.338;2022-08-05T06:17:11;101132.53;;;17.11;72.67
70009;BME280;59542;37.950;-122.338;2022-08-05T06:19:38;101134.16;;;17.12;72.66
70009;BME280;59542;37.950;-122.338;2022-08-05T06:22:06;101131.25;;;17.30;72.08
70009;BME280;59542;37.950;-122.338;2022-08-05T06:24:34;101125.81;;;17.13;72.79
70009;BME280;59542;37.950;-122.338;2022-08-05T06:27:01;101126.78;;;17.07;72.94
70009;BME280;59542;37.950;-122.338;2022-08-05T06:29:27;101134.34;;;17.22;72.79
70009;BME280;59542;37.950;-122.338;2022-08-05T06:31:53;101121.81;;;17.16;72.84
70009;BME280;59542;37.950;-122.338;2022-08-05T06:34:19;101128.25;;;17.15;72.79
70009;BME280;59542;37.950;-122.338;2022-08-05T06:36:46;101133.63;;;16.98;73.29
70009;BME280;59542;37.950;-122.338;2022-08-05T06:39:12;101132.22;;;16.96;73.65
70009;BME280;59542;37.950;-122.338;2022-08-05T06:41:38;101133.63;;;16.98;73.46
70009;BME280;59542;37.950;-122.338;2022-08-05T06:44:04;101129.94;;;16.76;74.37
70009;BME280;59542;37.950;-122.338;2022-08-05T06:46:30;101136.06;;;16.83;73.74
70009;BME280;59542;37.950;-122.338;2022-08-05T06:48:58;101128.72;;;16.95;73.52
70009;BME280;59542;37.950;-122.338;2022-08-05T06:51:24;101138.56;;;17.01;73.06
70009;BME280;59542;37.950;-122.338;2022-08-05T06:53:50;101135.75;;;16.96;73.08
70009;BME280;59542;37.950;-122.338;2022-08-05T06:56:16;101129.88;;;16.99;72.98
70009;BME280;59542;37.950;-122.338;2022-08-05T06:58:44;101126.94;;;17.01;72.75
70009;BME280;59542;37.950;-122.338;2022-08-05T07:01:10;101120.97;;;16.87;73.81
70009;BME280;59542;37.950;-122.338;2022-08-05T07:03:36;101120.16;;;16.86;73.63
70009;BME280;59542;37.950;-122.338;2022-08-05T07:06:03;101124.41;;;16.82;73.73
70009;BME280;59542;37.950;-122.338;2022-08-05T07:08:29;101132.69;;;16.93;73.56
70009;BME280;59542;37.950;-122.338;2022-08-05T07:10:56;101118.31;;;17.04;73.14
70009;BME280;59542;37.950;-122.338;2022-08-05T07:13:22;101118.00;;;17.00;72.93
70009;BME280;59542;37.950;-122.338;2022-08-05T07:16:07;101119.72;;;17.06;73.05
70009;BME280;59542;37.950;-122.338;2022-08-05T07:18:51;101125.44;;;17.10;72.44
70009;BME280;59542;37.950;-122.338;2022-08-05T07:21:17;101127.19;;;16.87;73.45
70009;BME280;59542;37.950;-122.338;2022-08-05T07:23:44;101129.44;;;16.91;73.07
70009;BME280;59542;37.950;-122.338;2022-08-05T07:26:10;101123.50;;;17.05;72.19
70009;BME280;59542;37.950;-122.338;2022-08-05T07:28:36;101134.06;;;17.07;72.38
70009;BME280;59542;37.950;-122.338;2022-08-05T07:31:02;101138.66;;;17.06;72.81
70009;BME280;59542;37.950;-122.338;2022-08-05T07:33:31;101143.97;;;17.01;73.26
70009;BME280;59542;37.950;-122.338;2022-08-05T07:35:58;101132.84;;;17.14;72.38
70009;BME280;59542;37.950;-122.338;2022-08-05T07:38:25;101143.97;;;17.01;72.70
70009;BME280;59542;37.950;-122.338;2022-08-05T07:40:51;101142.28;;;17.12;72.14
70009;BME280;59542;37.950;-122.338;2022-08-05T07:43:17;101137.44;;;17.14;72.25
70009;BME280;59542;37.950;-122.338;2022-08-05T07:45:43;101140.50;;;17.18;72.13
70009;BME280;59542;37.950;-122.338;2022-08-05T07:48:10;101149.22;;;17.08;72.28
70009;BME280;59542;37.950;-122.338;2022-08-05T07:50:37;101143.59;;;17.26;71.69
70009;BME280;59542;37.950;-122.338;2022-08-05T07:53:03;101145.34;;;17.04;72.28
70009;BME280;59542;37.950;-122.338;2022-08-05T07:55:30;101139.81;;;17.10;72.14
70009;BME280;59542;37.950;-122.338;2022-08-05T07:57:57;101142.13;;;17.19;71.96
70009;BME280;59542;37.950;-122.338;2022-08-05T08:00:23;101144.38;;;17.22;72.00
70009;BME280;59542;37.950;-122.338;2022-08-05T08:02:50;101138.84;;;17.17;72.52
70009;BME280;59542;37.950;-122.338;2022-08-05T08:05:16;101136.06;;;17.11;72.54
70009;BME280;59542;37.950;-122.338;2022-08-05T08:07:42;101135.34;;;17.16;72.65
70009;BME280;59542;37.950;-122.338;2022-08-05T08:10:09;101145.50;;;17.26;72.36
70009;BME280;59542;37.950;-122.338;2022-08-05T08:12:35;101142.59;;;17.15;72.22
70009;BME280;59542;37.950;-122.338;2022-08-05T08:15:02;101143.38;;;17.28;71.76
70009;BME280;59542;37.950;-122.338;2022-08-05T08:17:29;101137.94;;;17.11;72.41
70009;BME280;59542;37.950;-122.338;2022-08-05T08:19:55;101134.72;;;17.14;72.41
70009;BME280;59542;37.950;-122.338;2022-08-05T08:22:25;101131.22;;;17.13;72.11
70009;BME280;59542;37.950;-122.338;2022-08-05T08:24:52;101139.56;;;17.12;72.13
70009;BME280;59542;37.950;-122.338;2022-08-05T08:27:18;101137.03;;;17.05;72.58
70009;BME280;59542;37.950;-122.338;2022-08-05T08:29:44;101128.84;;;17.17;72.39
70009;BME280;59542;37.950;-122.338;2022-08-05T08:32:10;101132.47;;;17.23;72.06
70009;BME280;59542;37.950;-122.338;2022-08-05T08:34:37;101129.22;;;17.09;72.33
70009;BME280;59542;37.950;-122.338;2022-08-05T08:37:03;101129.94;;;17.16;72.13
70009;BME280;59542;37.950;-122.338;2022-08-05T08:39:29;101127.59;;;17.08;72.54
70009;BME280;59542;37.950;-122.338;2022-08-05T08:41:55;101127.22;;;17.16;72.50
70009;BME280;59542;37.950;-122.338;2022-08-05T08:44:24;101127.69;;;17.13;72.61
70009;BME280;59542;37.950;-122.338;2022-08-05T08:46:53;101133.91;;;17.13;72.45
70009;BME280;59542;37.950;-122.338;2022-08-05T08:49:22;101127.94;;;17.11;71.81
70009;BME280;59542;37.950;-122.338;2022-08-05T08:52:07;101128.59;;;17.19;71.82
70009;BME280;59542;37.950;-122.338;2022-08-05T08:54:36;101127.28;;;17.21;71.46
70009;BME280;59542;37.950;-122.338;2022-08-05T08:57:07;101133.53;;;17.22;71.75
70009;BME280;59542;37.950;-122.338;2022-08-05T08:59:34;101131.31;;;17.19;71.39
70009;BME280;59542;37.950;-122.338;2022-08-05T09:02:04;101129.63;;;17.29;71.21
70009;BME280;59542;37.950;-122.338;2022-08-05T09:04:33;101133.84;;;17.25;71.53
70009;BME280;59542;37.950;-122.338;2022-08-05T09:07:06;101132.25;;;17.41;70.98
70009;BME280;59542;37.950;-122.338;2022-08-05T09:09:34;101143.19;;;17.18;72.14
70009;BME280;59542;37.950;-122.338;2022-08-05T09:12:01;101139.72;;;17.34;71.91
70009;BME280;59542;37.950;-122.338;2022-08-05T09:14:30;101135.38;;;17.33;71.69
70009;BME280;59542;37.950;-122.338;2022-08-05T09:16:58;101145.13;;;17.34;71.91
70009;BME280;59542;37.950;-122.338;2022-08-05T09:19:25;101144.53;;;17.32;71.77
70009;BME280;59542;37.950;-122.338;2022-08-05T09:21:51;101144.41;;;17.38;71.39
70009;BME280;59542;37.950;-122.338;2022-08-05T09:24:18;101151.91;;;17.36;71.17
70009;BME280;59542;37.950;-122.338;2022-08-05T09:26:52;101143.47;;;17.33;71.64
70009;BME280;59542;37.950;-122.338;2022-08-05T09:29:18;101153.41;;;17.44;71.32
70009;BME280;59542;37.950;-122.338;2022-08-05T09:32:05;101145.31;;;17.15;72.68
70009;BME280;59542;37.950;-122.338;2022-08-05T09:34:52;101140.50;;;17.18;72.79
70009;BME280;59542;37.950;-122.338;2022-08-05T09:37:21;101151.88;;;17.20;72.95
70009;BME280;59542;37.950;-122.338;2022-08-05T09:39:47;101151.22;;;17.12;73.08
70009;BME280;59542;37.950;-122.338;2022-08-05T09:42:18;101153.91;;;17.12;73.06
70009;BME280;59542;37.950;-122.338;2022-08-05T09:44:48;101155.00;;;17.11;73.07
70009;BME280;59542;37.950;-122.338;2022-08-05T09:47:16;101165.97;;;17.05;73.38
70009;BME280;59542;37.950;-122.338;2022-08-05T09:52:26;101169.84;;;16.97;73.24
70009;BME280;59542;37.950;-122.338;2022-08-05T10:00:06;101169.53;;;16.94;73.01
70009;BME280;59542;37.950;-122.338;2022-08-05T10:02:36;101183.13;;;16.99;73.00
70009;BME280;59542;37.950;-122.338;2022-08-05T10:05:05;101174.53;;;17.02;72.97
70009;BME280;59542;37.950;-122.338;2022-08-05T10:10:24;101164.44;;;16.97;73.38
70009;BME280;59542;37.950;-122.338;2022-08-05T10:12:53;101171.84;;;17.02;72.68
70009;BME280;59542;37.950;-122.338;2022-08-05T10:15:32;101168.31;;;17.01;72.51
70009;BME280;59542;37.950;-122.338;2022-08-05T10:18:13;101176.72;;;16.88;73.42
70009;BME280;59542;37.950;-122.338;2022-08-05T10:21:04;101164.13;;;16.82;73.16
70009;BME280;59542;37.950;-122.338;2022-08-05T10:23:34;101159.88;;;16.86;73.22
70009;BME280;59542;37.950;-122.338;2022-08-05T10:26:03;101160.59;;;16.70;73.76
70009;BME280;59542;37.950;-122.338;2022-08-05T10:28:30;101163.78;;;16.67;73.99
70009;BME280;59542;37.950;-122.338;2022-08-05T10:30:58;101171.66;;;16.68;73.73
70009;BME280;59542;37.950;-122.338;2022-08-05T10:33:26;101173.69;;;16.73;73.67
70009;BME280;59542;37.950;-122.338;2022-08-05T10:35:54;101167.22;;;16.74;73.76
70009;BME280;59542;37.950;-122.338;2022-08-05T10:38:22;101174.25;;;16.75;73.60
70009;BME280;59542;37.950;-122.338;2022-08-05T10:46:04;101179.53;;;16.70;73.28
70009;BME280;59542;37.950;-122.338;2022-08-05T10:48:41;101179.66;;;16.75;73.25
70009;BME280;59542;37.950;-122.338;2022-08-05T10:51:12;101179.53;;;16.70;73.53
70009;BME280;59542;37.950;-122.338;2022-08-05T10:56:25;101179.09;;;16.73;73.30
70009;BME280;59542;37.950;-122.338;2022-08-05T11:01:35;101187.78;;;16.75;73.78
70009;BME280;59542;37.950;-122.338;2022-08-05T11:06:31;101186.13;;;16.74;73.42
70009;BME280;59542;37.950;-122.338;2022-08-05T11:09:17;101186.47;;;16.66;73.80
70009;BME280;59542;37.950;-122.338;2022-08-05T11:11:45;101185.19;;;16.56;73.84
70009;BME280;59542;37.950;-122.338;2022-08-05T11:14:12;101187.28;;;16.54;74.21
70009;BME280;59542;37.950;-122.338;2022-08-05T11:19:55;101188.47;;;16.58;74.11
70009;BME280;59542;37.950;-122.338;2022-08-05T11:22:43;101190.47;;;16.75;73.72
70009;BME280;59542;37.950;-122.338;2022-08-05T11:25:37;101189.38;;;16.87;72.91
70009;BME280;59542;37.950;-122.338;2022-08-05T11:33:32;101201.28;;;16.75;73.44
70009;BME280;59542;37.950;-122.338;2022-08-05T11:36:08;101187.63;;;16.81;73.58
70009;BME280;59542;37.950;-122.338;2022-08-05T11:41:13;101195.53;;;16.83;73.46
70009;BME280;59542;37.950;-122.338;2022-08-05T11:43:51;101187.88;;;16.80;73.07
70009;BME280;59542;37.950;-122.338;2022-08-05T11:46:28;101197.06;;;16.67;73.54
70009;BME280;59542;37.950;-122.338;2022-08-05T11:48:55;101197.88;;;16.68;73.13
70009;BME280;59542;37.950;-122.338;2022-08-05T11:51:23;101200.81;;;16.66;73.46
70009;BME280;59542;37.950;-122.338;2022-08-05T11:53:49;101209.25;;;16.70;73.49
70009;BME280;59542;37.950;-122.338;2022-08-05T11:56:16;101203.41;;;16.73;73.22
70009;BME280;59542;37.950;-122.338;2022-08-05T11:58:44;101198.59;;;16.75;72.96
70009;BME280;59542;37.950;-122.338;2022-08-05T12:01:14;101200.97;;;16.71;73.08
70009;BME280;59542;37.950;-122.338;2022-08-05T12:06:22;101201.38;;;16.68;73.25
70009;BME280;59542;37.950;-122.338;2022-08-05T12:08:51;101204.69;;;16.58;74.00
70009;BME280;59542;37.950;-122.338;2022-08-05T12:16:34;101211.72;;;16.59;73.80
70009;BME280;59542;37.950;-122.338;2022-08-05T12:19:01;101205.63;;;16.52;74.72
70009;BME280;59542;37.950;-122.338;2022-08-05T12:21:33;101216.00;;;16.55;74.28
70009;BME280;59542;37.950;-122.338;2022-08-05T12:24:06;101215.88;;;16.50;74.37
70009;BME280;59542;37.950;-122.338;2022-08-05T12:26:39;101215.25;;;16.48;74.48
70009;BME280;59542;37.950;-122.338;2022-08-05T12:29:15;101215.03;;;16.61;74.00
70009;BME280;59542;37.950;-122.338;2022-08-05T12:31:47;101217.38;;;16.70;73.38
70009;BME280;59542;37.950;-122.338;2022-08-05T12:34:15;101211.84;;;16.53;74.09
70009;BME280;59542;37.950;-122.338;2022-08-05T12:36:42;101217.03;;;16.66;73.54
70009;BME280;59542;37.950;-122.338;2022-08-05T12:39:10;101219.25;;;16.81;73.27
70009;BME280;59542;37.950;-122.338;2022-08-05T12:41:39;101214.66;;;16.81;73.21
70009;BME280;59542;37.950;-122.338;2022-08-05T12:44:10;101221.13;;;16.80;73.28
70009;BME280;59542;37.950;-122.338;2022-08-05T12:46:38;101223.84;;;16.69;73.73
70009;BME280;59542;37.950;-122.338;2022-08-05T12:49:10;101226.53;;;16.69;73.59
70009;BME280;59542;37.950;-122.338;2022-08-05T12:51:48;101220.19;;;16.63;73.76
70009;BME280;59542;37.950;-122.338;2022-08-05T12:54:25;101230.75;;;16.64;73.67
70009;BME280;59542;37.950;-122.338;2022-08-05T12:57:03;101232.41;;;16.54;73.90
70009;BME280;59542;37.950;-122.338;2022-08-05T12:59:54;101239.63;;;16.72;73.35
70009;BME280;59542;37.950;-122.338;2022-08-05T13:02:24;101239.00;;;16.70;73.36
70009;BME280;59542;37.950;-122.338;2022-08-05T13:04:51;101250.56;;;16.77;72.85
70009;BME280;59542;37.950;-122.338;2022-08-05T13:07:23;101252.91;;;16.73;72.64
70009;BME280;59542;37.950;-122.338;2022-08-05T13:09:54;101251.47;;;16.71;72.53
70009;BME280;59542;37.950;-122.338;2022-08-05T13:12:23;101254.03;;;16.66;73.30
70009;BME280;59542;37.950;-122.338;2022-08-05T13:17:25;101263.31;;;16.58;73.44